Selz, North Dakota
Current Conditions -  °F | °C
As of 1:35 AM on Thursday 18 Dec 2014 (Local Time) from K5H4 Reporting Station
Clear Clear  
Wind Chill: -3°   Ceiling: Unl
Heat Index:   Visibility: 10mi
Dew Point:   Wind: 6mph
Humidity: 92%   Direction: 110°ESE
Pressure: 30.17"   Gusts: NA
Location:  47.7822°N, 99.8441°W
Report Text: K5H4 180735Z AUTO 11005KT 10SM CLR M14/M15 A3017 RMK AO2
Loading
Personal Weather Stations






























Interactive Weather Map New forecast layout! Learn more

10-Day Weather Forecast

Advertisements
Track Severe Weather on mobile